sensor_id;sensor_type;location;lat;lon;timestamp;pressure;altitude;pressure_sealevel;temperature;humidity
7075;BME280;3578;51.568;6.932;2023-03-03T00:00:49;51208.50;;;-144.14;98.45
7075;BME280;3578;51.568;6.932;2023-03-03T00:03:19;51172.47;;;-144.14;98.85
7075;BME280;3578;51.568;6.932;2023-03-03T00:05:47;51166.47;;;-144.14;98.71
7075;BME280;3578;51.568;6.932;2023-03-03T00:08:16;51160.44;;;-144.14;98.59
7075;BME280;3578;51.568;6.932;2023-03-03T00:10:44;51214.53;;;-144.14;98.31
7075;BME280;3578;51.568;6.932;2023-03-03T00:13:15;51164.44;;;-144.14;98.22
7075;BME280;3578;51.568;6.932;2023-03-03T00:15:43;51226.53;;;-144.14;97.85
7075;BME280;3578;51.568;6.932;2023-03-03T00:18:29;51246.56;;;-144.14;97.78
7075;BME280;3578;51.568;6.932;2023-03-03T00:20:59;51238.56;;;-144.14;97.68
7075;BME280;3578;51.568;6.932;2023-03-03T00:23:30;51182.47;;;-144.14;97.69
7075;BME280;3578;51.568;6.932;2023-03-03T00:26:01;51248.56;;;-144.14;97.71
7075;BME280;3578;51.568;6.932;2023-03-03T00:28:38;51266.59;;;-144.14;97.45
7075;BME280;3578;51.568;6.932;2023-03-03T00:31:16;51238.56;;;-144.14;97.83
7075;BME280;3578;51.568;6.932;2023-03-03T00:33:48;51266.59;;;-144.14;97.32
7075;BME280;3578;51.568;6.932;2023-03-03T00:36:30;51258.59;;;-144.14;97.50
7075;BME280;3578;51.568;6.932;2023-03-03T00:39:21;51294.63;;;-144.14;97.33
7075;BME280;3578;51.568;6.932;2023-03-03T00:41:49;51250.56;;;-144.14;97.26
7075;BME280;3578;51.568;6.932;2023-03-03T00:44:39;51246.56;;;-144.14;97.31
7075;BME280;3578;51.568;6.932;2023-03-03T00:47:28;51218.53;;;-144.14;97.72
7075;BME280;3578;51.568;6.932;2023-03-03T00:50:25;51234.56;;;-144.14;97.75
7075;BME280;3578;51.568;6.932;2023-03-03T00:53:06;51234.56;;;-144.14;97.75
7075;BME280;3578;51.568;6.932;2023-03-03T00:55:37;51286.63;;;-144.14;97.99
7075;BME280;3578;51.568;6.932;2023-03-03T00:58:05;51244.56;;;-144.14;97.93
7075;BME280;3578;51.568;6.932;2023-03-03T01:00:34;51264.59;;;-144.14;97.32
7075;BME280;3578;51.568;6.932;2023-03-03T01:03:04;51286.63;;;-144.14;97.37
7075;BME280;3578;51.568;6.932;2023-03-03T01:05:34;51294.63;;;-144.14;97.33
7075;BME280;3578;51.568;6.932;2023-03-03T01:08:02;51294.63;;;-144.14;97.29
7075;BME280;3578;51.568;6.932;2023-03-03T01:10:33;51234.56;;;-144.14;97.99
7075;BME280;3578;51.568;6.932;2023-03-03T01:13:02;51248.56;;;-144.14;98.01
7075;BME280;3578;51.568;6.932;2023-03-03T01:15:30;51228.53;;;-144.14;98.38
7075;BME280;3578;51.568;6.932;2023-03-03T01:18:00;51238.56;;;-144.14;98.73
7075;BME280;3578;51.568;6.932;2023-03-03T01:20:27;51214.53;;;-144.14;99.04
7075;BME280;3578;51.568;6.932;2023-03-03T01:22:55;51200.50;;;-144.14;99.09
7075;BME280;3578;51.568;6.932;2023-03-03T01:25:22;51198.50;;;-144.14;99.04
7075;BME280;3578;51.568;6.932;2023-03-03T01:27:49;51180.47;;;-144.14;99.07
7075;BME280;3578;51.568;6.932;2023-03-03T01:30:16;51198.50;;;-144.14;99.03
7075;BME280;3578;51.568;6.932;2023-03-03T01:32:43;51190.50;;;-144.14;99.04
7075;BME280;3578;51.568;6.932;2023-03-03T01:35:11;51202.50;;;-144.14;99.02
7075;BME280;3578;51.568;6.932;2023-03-03T01:37:38;51174.47;;;-144.14;99.29
7075;BME280;3578;51.568;6.932;2023-03-03T01:40:13;51184.47;;;-144.14;99.43
7075;BME280;3578;51.568;6.932;2023-03-03T01:42:40;51164.44;;;-144.14;99.28
7075;BME280;3578;51.568;6.932;2023-03-03T01:45:16;51196.50;;;-144.14;99.09
7075;BME280;3578;51.568;6.932;2023-03-03T01:47:48;51190.50;;;-144.14;98.97
7075;BME280;3578;51.568;6.932;2023-03-03T01:50:29;51158.44;;;-144.14;99.26
7075;BME280;3578;51.568;6.932;2023-03-03T01:52:59;51204.50;;;-144.14;99.01
7075;BME280;3578;51.568;6.932;2023-03-03T01:55:33;51190.50;;;-144.14;98.60
7075;BME280;3578;51.568;6.932;2023-03-03T01:58:04;51210.53;;;-144.14;98.72
7075;BME280;3578;51.568;6.932;2023-03-03T02:00:37;51234.56;;;-144.14;98.78
7075;BME280;3578;51.568;6.932;2023-03-03T02:03:05;51186.47;;;-144.14;99.02
7075;BME280;3578;51.568;6.932;2023-03-03T02:05:34;51180.47;;;-144.14;99.06
7075;BME280;3578;51.568;6.932;2023-03-03T02:08:02;51174.47;;;-144.14;99.13
7075;BME280;3578;51.568;6.932;2023-03-03T02:10:29;51170.47;;;-144.14;99.20
7075;BME280;3578;51.568;6.932;2023-03-03T02:12:57;51184.47;;;-144.14;99.29
7075;BME280;3578;51.568;6.932;2023-03-03T02:15:27;51218.53;;;-144.14;99.12
7075;BME280;3578;51.568;6.932;2023-03-03T02:18:01;51152.44;;;-144.14;99.36
7075;BME280;3578;51.568;6.932;2023-03-03T02:20:45;51190.50;;;-144.14;99.57
7075;BME280;3578;51.568;6.932;2023-03-03T02:23:21;51166.47;;;-144.14;99.89
7075;BME280;3578;51.568;6.932;2023-03-03T02:26:08;51140.41;;;-144.14;99.90
7075;BME280;3578;51.568;6.932;2023-03-03T02:28:37;51116.38;;;-144.14;99.63
7075;BME280;3578;51.568;6.932;2023-03-03T02:31:08;51152.44;;;-144.14;99.62
7075;BME280;3578;51.568;6.932;2023-03-03T02:33:37;51134.41;;;-144.14;99.29
7075;BME280;3578;51.568;6.932;2023-03-03T02:36:05;51160.44;;;-144.14;99.17
7075;BME280;3578;51.568;6.932;2023-03-03T02:38:38;51174.47;;;-144.14;99.24
7075;BME280;3578;51.568;6.932;2023-03-03T02:41:16;51118.38;;;-144.14;99.50
7075;BME280;3578;51.568;6.932;2023-03-03T02:43:53;51100.38;;;-144.14;99.91
7075;BME280;3578;51.568;6.932;2023-03-03T02:46:23;51114.38;;;-144.14;99.85
7075;BME280;3578;51.568;6.932;2023-03-03T02:48:50;51120.38;;;-144.14;99.31
7075;BME280;3578;51.568;6.932;2023-03-03T02:51:17;51178.47;;;-144.14;99.21
7075;BME280;3578;51.568;6.932;2023-03-03T02:53:44;51146.44;;;-144.14;99.28
7075;BME280;3578;51.568;6.932;2023-03-03T02:56:13;51146.44;;;-144.14;99.39
7075;BME280;3578;51.568;6.932;2023-03-03T02:58:40;51170.47;;;-144.14;99.09
7075;BME280;3578;51.568;6.932;2023-03-03T03:01:10;51184.47;;;-144.14;98.96
7075;BME280;3578;51.568;6.932;2023-03-03T03:03:37;51134.41;;;-144.14;99.02
7075;BME280;3578;51.568;6.932;2023-03-03T03:06:04;51158.44;;;-144.14;98.75
7075;BME280;3578;51.568;6.932;2023-03-03T03:08:31;51160.44;;;-144.14;98.65
7075;BME280;3578;51.568;6.932;2023-03-03T03:10:58;51196.50;;;-144.14;98.78
7075;BME280;3578;51.568;6.932;2023-03-03T03:13:27;51166.47;;;-144.14;98.75
7075;BME280;3578;51.568;6.932;2023-03-03T03:15:55;51178.47;;;-144.14;99.23
7075;BME280;3578;51.568;6.932;2023-03-03T03:18:22;51166.47;;;-144.14;99.23
7075;BME280;3578;51.568;6.932;2023-03-03T03:20:48;51160.44;;;-144.14;99.49
7075;BME280;3578;51.568;6.932;2023-03-03T03:23:16;51158.44;;;-144.14;99.64
7075;BME280;3578;51.568;6.932;2023-03-03T03:25:43;51124.41;;;-144.14;99.28
7075;BME280;3578;51.568;6.932;2023-03-03T03:28:11;51122.41;;;-144.14;100.00
7075;BME280;3578;51.568;6.932;2023-03-03T03:30:40;51082.34;;;-144.14;100.00
7075;BME280;3578;51.568;6.932;2023-03-03T03:33:09;51074.31;;;-144.14;100.00
7075;BME280;3578;51.568;6.932;2023-03-03T03:35:36;51132.41;;;-144.14;100.00
7075;BME280;3578;51.568;6.932;2023-03-03T03:38:05;51130.41;;;-144.14;99.47
7075;BME280;3578;51.568;6.932;2023-03-03T03:40:32;51140.41;;;-144.14;99.18
7075;BME280;3578;51.568;6.932;2023-03-03T03:42:59;51160.44;;;-144.14;99.33
7075;BME280;3578;51.568;6.932;2023-03-03T03:45:26;51158.44;;;-144.14;99.27
7075;BME280;3578;51.568;6.932;2023-03-03T03:47:54;51154.44;;;-144.14;99.34
7075;BME280;3578;51.568;6.932;2023-03-03T03:50:21;51194.50;;;-144.14;99.08
7075;BME280;3578;51.568;6.932;2023-03-03T03:52:48;51150.44;;;-144.14;99.26
7075;BME280;3578;51.568;6.932;2023-03-03T03:55:15;51168.47;;;-144.14;99.09
7075;BME280;3578;51.568;6.932;2023-03-03T03:57:42;51150.44;;;-144.14;99.21
7075;BME280;3578;51.568;6.932;2023-03-03T04:00:11;51166.47;;;-144.14;99.02
7075;BME280;3578;51.568;6.932;2023-03-03T04:02:38;51184.47;;;-144.14;99.02
7075;BME280;3578;51.568;6.932;2023-03-03T04:05:07;51166.47;;;-144.14;99.09
7075;BME280;3578;51.568;6.932;2023-03-03T04:07:34;51182.47;;;-144.14;99.07
7075;BME280;3578;51.568;6.932;2023-03-03T04:10:01;51178.47;;;-144.14;99.21
7075;BME280;3578;51.568;6.932;2023-03-03T04:12:28;51148.44;;;-144.14;98.99
7075;BME280;3578;51.568;6.932;2023-03-03T04:15:00;51168.47;;;-144.14;99.19
7075;BME280;3578;51.568;6.932;2023-03-03T04:17:27;51154.44;;;-144.14;99.06
7075;BME280;3578;51.568;6.932;2023-03-03T04:19:54;51166.47;;;-144.14;98.63
7075;BME280;3578;51.568;6.932;2023-03-03T04:22:22;51174.47;;;-144.14;98.74
7075;BME280;3578;51.568;6.932;2023-03-03T04:24:49;51182.47;;;-144.14;98.81
7075;BME280;3578;51.568;6.932;2023-03-03T04:27:16;51178.47;;;-144.14;98.45
7075;BME280;3578;51.568;6.932;2023-03-03T04:29:43;51198.50;;;-144.14;98.10
7075;BME280;3578;51.568;6.932;2023-03-03T04:32:10;51196.50;;;-144.14;98.13
7075;BME280;3578;51.568;6.932;2023-03-03T04:34:37;51206.50;;;-144.14;97.84
7075;BME280;3578;51.568;6.932;2023-03-03T04:37:04;51252.56;;;-144.14;97.67
7075;BME280;3578;51.568;6.932;2023-03-03T04:39:33;51250.56;;;-144.14;97.84
7075;BME280;3578;51.568;6.932;2023-03-03T04:42:00;51200.50;;;-144.14;98.20
7075;BME280;3578;51.568;6.932;2023-03-03T04:44:27;51238.56;;;-144.14;98.01
7075;BME280;3578;51.568;6.932;2023-03-03T04:46:54;51210.53;;;-144.14;97.18
7075;BME280;3578;51.568;6.932;2023-03-03T04:49:21;51264.59;;;-144.14;97.06
7075;BME280;3578;51.568;6.932;2023-03-03T04:51:48;51262.59;;;-144.14;97.03
7075;BME280;3578;51.568;6.932;2023-03-03T04:54:15;51306.66;;;-144.14;96.87
7075;BME280;3578;51.568;6.932;2023-03-03T04:56:44;51278.63;;;-144.14;97.24
7075;BME280;3578;51.568;6.932;2023-03-03T04:59:11;51250.56;;;-144.14;97.14
7075;BME280;3578;51.568;6.932;2023-03-03T05:01:38;51238.56;;;-144.14;97.14
7075;BME280;3578;51.568;6.932;2023-03-03T05:04:05;51274.63;;;-144.14;97.03
7075;BME280;3578;51.568;6.932;2023-03-03T05:06:32;51308.66;;;-144.14;96.98
7075;BME280;3578;51.568;6.932;2023-03-03T05:08:59;51318.69;;;-144.14;96.89
7075;BME280;3578;51.568;6.932;2023-03-03T05:11:26;51300.66;;;-144.14;96.97
7075;BME280;3578;51.568;6.932;2023-03-03T05:13:54;51272.59;;;-144.14;97.38
7075;BME280;3578;51.568;6.932;2023-03-03T05:16:21;51288.63;;;-144.14;97.04
7075;BME280;3578;51.568;6.932;2023-03-03T05:18:48;51294.63;;;-144.14;96.97
7075;BME280;3578;51.568;6.932;2023-03-03T05:21:15;51278.63;;;-144.14;96.89
7075;BME280;3578;51.568;6.932;2023-03-03T05:23:42;51306.66;;;-144.14;97.06
7075;BME280;3578;51.568;6.932;2023-03-03T05:26:09;51264.59;;;-144.14;96.89
7075;BME280;3578;51.568;6.932;2023-03-03T05:28:36;51294.63;;;-144.14;96.73
7075;BME280;3578;51.568;6.932;2023-03-03T05:31:04;51318.69;;;-144.14;96.78
7075;BME280;3578;51.568;6.932;2023-03-03T05:33:31;51330.69;;;-144.14;96.95
7075;BME280;3578;51.568;6.932;2023-03-03T05:35:58;51318.69;;;-144.14;96.90
7075;BME280;3578;51.568;6.932;2023-03-03T05:38:25;51280.63;;;-144.14;97.03
7075;BME280;3578;51.568;6.932;2023-03-03T05:40:52;51278.63;;;-144.14;97.31
7075;BME280;3578;51.568;6.932;2023-03-03T05:43:20;51306.66;;;-144.14;97.08
7075;BME280;3578;51.568;6.932;2023-03-03T05:45:46;51254.59;;;-144.14;97.05
7075;BME280;3578;51.568;6.932;2023-03-03T05:48:15;51306.66;;;-144.14;96.81
7075;BME280;3578;51.568;6.932;2023-03-03T05:50:42;51306.66;;;-144.14;96.46
7075;BME280;3578;51.568;6.932;2023-03-03T05:53:09;51306.66;;;-144.14;96.22
7075;BME280;3578;51.568;6.932;2023-03-03T05:55:35;51302.66;;;-144.14;96.33
7075;BME280;3578;51.568;6.932;2023-03-03T05:58:02;51338.72;;;-144.14;96.36
7075;BME280;3578;51.568;6.932;2023-03-03T06:00:29;51314.66;;;-144.14;96.44
7075;BME280;3578;51.568;6.932;2023-03-03T06:02:56;51326.69;;;-144.14;95.91
7075;BME280;3578;51.568;6.932;2023-03-03T06:05:25;51324.69;;;-144.14;95.83
7075;BME280;3578;51.568;6.932;2023-03-03T06:07:52;51348.72;;;-144.14;95.83
7075;BME280;3578;51.568;6.932;2023-03-03T06:10:19;51346.72;;;-144.14;96.03
7075;BME280;3578;51.568;6.932;2023-03-03T06:12:46;51332.69;;;-144.14;96.19
7075;BME280;3578;51.568;6.932;2023-03-03T06:15:13;51332.69;;;-144.14;96.15
7075;BME280;3578;51.568;6.932;2023-03-03T06:17:40;51350.72;;;-144.14;96.31
7075;BME280;3578;51.568;6.932;2023-03-03T06:20:08;51310.66;;;-144.14;96.21
7075;BME280;3578;51.568;6.932;2023-03-03T06:22:37;51334.69;;;-144.14;96.15
7075;BME280;3578;51.568;6.932;2023-03-03T06:25:05;51322.69;;;-144.14;96.22
7075;BME280;3578;51.568;6.932;2023-03-03T06:27:32;51318.69;;;-144.14;96.10
7075;BME280;3578;51.568;6.932;2023-03-03T06:29:58;51334.69;;;-144.14;96.07
7075;BME280;3578;51.568;6.932;2023-03-03T06:32:26;51344.72;;;-144.14;95.93
7075;BME280;3578;51.568;6.932;2023-03-03T06:34:52;51358.72;;;-144.14;95.84
7075;BME280;3578;51.568;6.932;2023-03-03T06:37:19;51382.78;;;-144.14;95.53
7075;BME280;3578;51.568;6.932;2023-03-03T06:39:48;51372.75;;;-144.14;95.37
7075;BME280;3578;51.568;6.932;2023-03-03T06:42:16;51380.78;;;-144.14;95.45
7075;BME280;3578;51.568;6.932;2023-03-03T06:44:43;51352.72;;;-144.14;95.40
7075;BME280;3578;51.568;6.932;2023-03-03T06:47:10;51374.75;;;-144.14;95.75
7075;BME280;3578;51.568;6.932;2023-03-03T06:49:37;51326.69;;;-144.14;96.03
7075;BME280;3578;51.568;6.932;2023-03-03T06:52:11;51326.69;;;-144.14;96.01
7075;BME280;3578;51.568;6.932;2023-03-03T06:54:39;51352.72;;;-144.14;96.24
7075;BME280;3578;51.568;6.932;2023-03-03T06:57:16;51396.78;;;-144.14;95.80
7075;BME280;3578;51.568;6.932;2023-03-03T06:59:44;51368.75;;;-144.14;95.80
7075;BME280;3578;51.568;6.932;2023-03-03T07:02:15;51390.78;;;-144.14;95.37
7075;BME280;3578;51.568;6.932;2023-03-03T07:04:43;51386.78;;;-144.14;95.18
7075;BME280;3578;51.568;6.932;2023-03-03T07:07:19;51372.75;;;-144.14;95.26
7075;BME280;3578;51.568;6.932;2023-03-03T07:09:53;51386.78;;;-144.14;95.20
7075;BME280;3578;51.568;6.932;2023-03-03T07:12:24;51386.78;;;-144.14;95.15
7075;BME280;3578;51.568;6.932;2023-03-03T07:14:58;51392.78;;;-144.14;94.80
7075;BME280;3578;51.568;6.932;2023-03-03T07:17:29;51398.78;;;-144.14;94.75
7075;BME280;3578;51.568;6.932;2023-03-03T07:19:57;51414.81;;;-144.14;94.21
7075;BME280;3578;51.568;6.932;2023-03-03T07:22:27;51428.84;;;-144.14;93.98
7075;BME280;3578;51.568;6.932;2023-03-03T07:24:59;51450.88;;;-144.14;93.55
7075;BME280;3578;51.568;6.932;2023-03-03T07:27:30;51426.84;;;-144.14;93.37
7075;BME280;3578;51.568;6.932;2023-03-03T07:30:16;51464.91;;;-144.14;93.04
7075;BME280;3578;51.568;6.932;2023-03-03T07:32:47;51440.84;;;-144.14;93.27
7075;BME280;3578;51.568;6.932;2023-03-03T07:35:35;51502.94;;;-144.14;93.34
7075;BME280;3578;51.568;6.932;2023-03-03T07:38:24;51458.88;;;-144.14;93.43
7075;BME280;3578;51.568;6.932;2023-03-03T07:40:57;51442.88;;;-144.14;93.42
7075;BME280;3578;51.568;6.932;2023-03-03T07:43:33;51464.91;;;-144.14;93.55
7075;BME280;3578;51.568;6.932;2023-03-03T07:46:24;51474.91;;;-144.14;93.41
7075;BME280;3578;51.568;6.932;2023-03-03T07:48:52;51470.91;;;-144.14;93.60
7075;BME280;3578;51.568;6.932;2023-03-03T07:51:22;51458.88;;;-144.14;93.52
7075;BME280;3578;51.568;6.932;2023-03-03T07:53:53;51478.91;;;-144.14;93.67
7075;BME280;3578;51.568;6.932;2023-03-03T07:56:29;51482.91;;;-144.14;93.80
7075;BME280;3578;51.568;6.932;2023-03-03T07:58:59;51464.91;;;-144.14;94.24
7075;BME280;3578;51.568;6.932;2023-03-03T08:01:37;51460.88;;;-144.14;94.46
7075;BME280;3578;51.568;6.932;2023-03-03T08:04:21;51460.88;;;-144.14;94.09
7075;BME280;3578;51.568;6.932;2023-03-03T08:06:52;51470.91;;;-144.14;94.38
7075;BME280;3578;51.568;6.932;2023-03-03T08:09:55;51458.88;;;-144.14;94.30
7075;BME280;3578;51.568;6.932;2023-03-03T08:12:39;51454.88;;;-144.14;94.48
7075;BME280;3578;51.568;6.932;2023-03-03T08:15:27;51460.88;;;-144.14;94.68
7075;BME280;3578;51.568;6.932;2023-03-03T08:17:59;51438.84;;;-144.14;94.27
7075;BME280;3578;51.568;6.932;2023-03-03T08:20:46;51486.94;;;-144.14;94.25
7075;BME280;3578;51.568;6.932;2023-03-03T08:23:16;51476.91;;;-144.14;94.16
7075;BME280;3578;51.568;6.932;2023-03-03T08:25:43;51462.88;;;-144.14;94.14
7075;BME280;3578;51.568;6.932;2023-03-03T08:28:11;51464.91;;;-144.14;94.44
7075;BME280;3578;51.568;6.932;2023-03-03T08:30:41;51482.91;;;-144.14;94.32
7075;BME280;3578;51.568;6.932;2023-03-03T08:33:08;51508.97;;;-144.14;93.88
7075;BME280;3578;51.568;6.932;2023-03-03T08:35:36;51472.91;;;-144.14;94.17
7075;BME280;3578;51.568;6.932;2023-03-03T08:38:04;51440.84;;;-144.14;94.25
7075;BME280;3578;51.568;6.932;2023-03-03T08:40:32;51474.91;;;-144.14;94.52
7075;BME280;3578;51.568;6.932;2023-03-03T08:42:59;51482.91;;;-144.14;94.51
7075;BME280;3578;51.568;6.932;2023-03-03T08:45:26;51506.97;;;-144.14;94.41
7075;BME280;3578;51.568;6.932;2023-03-03T08:47:55;51502.94;;;-144.14;94.37
7075;BME280;3578;51.568;6.932;2023-03-03T08:50:24;51466.91;;;-144.14;94.40
7075;BME280;3578;51.568;6.932;2023-03-03T08:52:51;51470.91;;;-144.14;93.97
7075;BME280;3578;51.568;6.932;2023-03-03T08:55:18;51488.94;;;-144.14;93.95
7075;BME280;3578;51.568;6.932;2023-03-03T08:57:45;51482.91;;;-144.14;93.82
7075;BME280;3578;51.568;6.932;2023-03-03T09:00:16;51468.91;;;-144.14;93.94
7075;BME280;3578;51.568;6.932;2023-03-03T09:02:43;51516.97;;;-144.14;94.03
7075;BME280;3578;51.568;6.932;2023-03-03T09:05:12;51498.94;;;-144.14;94.17
7075;BME280;3578;51.568;6.932;2023-03-03T09:07:40;51498.94;;;-144.14;93.78
7075;BME280;3578;51.568;6.932;2023-03-03T09:10:11;51498.94;;;-144.14;93.79
7075;BME280;3578;51.568;6.932;2023-03-03T09:12:41;51502.94;;;-144.14;93.39
7075;BME280;3578;51.568;6.932;2023-03-03T09:15:20;51504.97;;;-144.14;93.57
7075;BME280;3578;51.568;6.932;2023-03-03T09:17:49;51516.97;;;-144.14;93.07
7075;BME280;3578;51.568;6.932;2023-03-03T09:20:32;51502.94;;;-144.14;92.91
7075;BME280;3578;51.568;6.932;2023-03-03T09:23:32;51555.03;;;-144.14;92.19
7075;BME280;3578;51.568;6.932;2023-03-03T09:26:25;51559.03;;;-144.14;91.79
7075;BME280;3578;51.568;6.932;2023-03-03T09:28:59;51545.00;;;-144.14;92.70
7075;BME280;3578;51.568;6.932;2023-03-03T09:31:38;51531.00;;;-144.14;93.13
7075;BME280;3578;51.568;6.932;2023-03-03T09:34:19;51498.94;;;-144.14;93.38
7075;BME280;3578;51.568;6.932;2023-03-03T09:36:48;51510.97;;;-144.14;93.85
7075;BME280;3578;51.568;6.932;2023-03-03T09:39:19;51498.94;;;-144.14;93.58
7075;BME280;3578;51.568;6.932;2023-03-03T09:42:06;51504.97;;;-144.14;94.03
7075;BME280;3578;51.568;6.932;2023-03-03T09:45:10;51482.91;;;-144.14;93.67
7075;BME280;3578;51.568;6.932;2023-03-03T09:48:00;51484.94;;;-144.14;94.00
7075;BME280;3578;51.568;6.932;2023-03-03T09:50:41;51484.94;;;-144.14;94.14
7075;BME280;3578;51.568;6.932;2023-03-03T09:53:24;51498.94;;;-144.14;93.42
7075;BME280;3578;51.568;6.932;2023-03-03T09:56:01;51494.94;;;-144.14;93.99
7075;BME280;3578;51.568;6.932;2023-03-03T09:58:52;51531.00;;;-144.14;93.33
7075;BME280;3578;51.568;6.932;2023-03-03T10:01:48;51527.00;;;-144.14;93.51
7075;BME280;3578;51.568;6.932;2023-03-03T10:04:47;51516.97;;;-144.14;93.08
7075;BME280;3578;51.568;6.932;2023-03-03T10:07:34;51531.00;;;-144.14;93.20
7075;BME280;3578;51.568;6.932;2023-03-03T10:10:28;51525.00;;;-144.14;92.21
7075;BME280;3578;51.568;6.932;2023-03-03T10:13:15;51549.03;;;-144.14;92.20
7075;BME280;3578;51.568;6.932;2023-03-03T10:15:58;51547.03;;;-144.14;92.33
7075;BME280;3578;51.568;6.932;2023-03-03T10:18:37;51577.06;;;-144.14;91.38
7075;BME280;3578;51.568;6.932;2023-03-03T10:21:10;51595.09;;;-144.14;91.00
7075;BME280;3578;51.568;6.932;2023-03-03T10:23:54;51565.06;;;-144.14;90.93
7075;BME280;3578;51.568;6.932;2023-03-03T10:26:36;51599.09;;;-144.14;90.07
7075;BME280;3578;51.568;6.932;2023-03-03T10:29:17;51587.09;;;-144.14;90.64
7075;BME280;3578;51.568;6.932;2023-03-03T10:32:18;51611.13;;;-144.14;90.79
7075;BME280;3578;51.568;6.932;2023-03-03T10:35:04;51611.13;;;-144.14;90.67
7075;BME280;3578;51.568;6.932;2023-03-03T10:37:57;51609.13;;;-144.14;89.48
7075;BME280;3578;51.568;6.932;2023-03-03T10:40:33;51619.13;;;-144.14;89.57
7075;BME280;3578;51.568;6.932;2023-03-03T10:43:24;51611.13;;;-144.14;89.37
7075;BME280;3578;51.568;6.932;2023-03-03T10:46:27;51627.16;;;-144.14;89.40
7075;BME280;3578;51.568;6.932;2023-03-03T10:49:11;51621.13;;;-144.14;88.69
7075;BME280;3578;51.568;6.932;2023-03-03T10:51:52;51675.22;;;-144.14;88.39
7075;BME280;3578;51.568;6.932;2023-03-03T10:54:37;51655.19;;;-144.14;88.25
7075;BME280;3578;51.568;6.932;2023-03-03T10:57:16;51643.16;;;-144.14;89.07
7075;BME280;3578;51.568;6.932;2023-03-03T11:00:02;51675.22;;;-144.14;88.49
7075;BME280;3578;51.568;6.932;2023-03-03T11:02:42;51683.22;;;-144.14;87.97
7075;BME280;3578;51.568;6.932;2023-03-03T11:05:25;51715.28;;;-144.14;87.81
7075;BME280;3578;51.568;6.932;2023-03-03T11:07:57;51645.16;;;-144.14;87.90
7075;BME280;3578;51.568;6.932;2023-03-03T11:10:47;51693.25;;;-144.14;86.59
7075;BME280;3578;51.568;6.932;2023-03-03T11:13:23;51739.31;;;-144.14;86.33
7075;BME280;3578;51.568;6.932;2023-03-03T11:16:17;51743.34;;;-144.14;86.52
7075;BME280;3578;51.568;6.932;2023-03-03T11:19:04;51703.25;;;-144.14;86.51
7075;BME280;3578;51.568;6.932;2023-03-03T11:21:42;51723.28;;;-144.14;86.17
7075;BME280;3578;51.568;6.932;2023-03-03T11:24:30;51719.28;;;-144.14;85.99
7075;BME280;3578;51.568;6.932;2023-03-03T11:27:19;51739.31;;;-144.14;86.01
7075;BME280;3578;51.568;6.932;2023-03-03T11:30:10;51743.34;;;-144.14;86.14
7075;BME280;3578;51.568;6.932;2023-03-03T11:32:51;51739.31;;;-144.14;86.04
7075;BME280;3578;51.568;6.932;2023-03-03T11:35:24;51723.28;;;-144.14;84.82
7075;BME280;3578;51.568;6.932;2023-03-03T11:38:10;51799.41;;;-144.14;84.62
7075;BME280;3578;51.568;6.932;2023-03-03T11:40:49;51763.34;;;-144.14;84.68
7075;BME280;3578;51.568;6.932;2023-03-03T11:43:21;51809.44;;;-144.14;85.18
7075;BME280;3578;51.568;6.932;2023-03-03T11:45:55;51795.41;;;-144.14;84.78
7075;BME280;3578;51.568;6.932;2023-03-03T11:48:35;51749.34;;;-144.14;84.45
7075;BME280;3578;51.568;6.932;2023-03-03T11:51:07;51767.38;;;-144.14;84.75
7075;BME280;3578;51.568;6.932;2023-03-03T11:53:53;51837.47;;;-144.14;83.01
7075;BME280;3578;51.568;6.932;2023-03-03T11:56:26;51851.50;;;-144.14;82.29
7075;BME280;3578;51.568;6.932;2023-03-03T11:59:03;51875.53;;;-144.14;82.15
7075;BME280;3578;51.568;6.932;2023-03-03T12:01:41;51895.56;;;-144.14;81.08
7075;BME280;3578;51.568;6.932;2023-03-03T12:04:13;51913.59;;;-144.14;81.89
7075;BME280;3578;51.568;6.932;2023-03-03T12:06:56;51877.53;;;-144.14;81.69
7075;BME280;3578;51.568;6.932;2023-03-03T12:09:37;51883.56;;;-144.14;80.63
7075;BME280;3578;51.568;6.932;2023-03-03T12:12:11;51927.63;;;-144.14;80.58
7075;BME280;3578;51.568;6.932;2023-03-03T12:14:56;51921.63;;;-144.14;80.94
7075;BME280;3578;51.568;6.932;2023-03-03T12:17:50;51939.66;;;-144.14;78.12
7075;BME280;3578;51.568;6.932;2023-03-03T12:20:28;51961.69;;;-144.14;79.40
7075;BME280;3578;51.568;6.932;2023-03-03T12:23:17;51951.66;;;-144.14;78.61
7075;BME280;3578;51.568;6.932;2023-03-03T12:25:49;52007.75;;;-144.14;76.74
7075;BME280;3578;51.568;6.932;2023-03-03T12:28:20;52001.75;;;-144.14;76.16
7075;BME280;3578;51.568;6.932;2023-03-03T12:31:10;52039.81;;;-144.14;76.16
7075;BME280;3578;51.568;6.932;2023-03-03T12:33:54;52033.81;;;-144.14;75.31
7075;BME280;3578;51.568;6.932;2023-03-03T12:36:49;52029.78;;;-144.14;75.56
7075;BME280;3578;51.568;6.932;2023-03-03T12:39:35;52063.84;;;-144.14;76.87
7075;BME280;3578;51.568;6.932;2023-03-03T12:42:14;52095.91;;;-144.14;74.76
7075;BME280;3578;51.568;6.932;2023-03-03T12:44:55;52099.91;;;-144.14;75.07
7075;BME280;3578;51.568;6.932;2023-03-03T12:47:31;52095.91;;;-144.14;75.82
7075;BME280;3578;51.568;6.932;2023-03-03T12:50:26;52103.94;;;-144.14;74.89
7075;BME280;3578;51.568;6.932;2023-03-03T12:53:09;52137.97;;;-144.14;74.83
7075;BME280;3578;51.568;6.932;2023-03-03T12:55:48;52154.00;;;-144.14;75.21
7075;BME280;3578;51.568;6.932;2023-03-03T12:58:32;52160.03;;;-144.14;74.66
7075;BME280;3578;51.568;6.932;2023-03-03T13:01:14;52146.00;;;-144.14;75.24
7075;BME280;3578;51.568;6.932;2023-03-03T13:03:54;52119.94;;;-144.14;74.68
7075;BME280;3578;51.568;6.932;2023-03-03T13:06:28;52107.94;;;-144.14;76.79
7075;BME280;3578;51.568;6.932;2023-03-03T13:09:10;52127.97;;;-144.14;76.22
7075;BME280;3578;51.568;6.932;2023-03-03T13:11:54;52115.94;;;-144.14;76.50
7075;BME280;3578;51.568;6.932;2023-03-03T13:14:34;52127.97;;;-144.14;77.24
7075;BME280;3578;51.568;6.932;2023-03-03T13:17:16;52111.94;;;-144.14;77.97
7075;BME280;3578;51.568;6.932;2023-03-03T13:19:51;52125.97;;;-144.14;78.06
7075;BME280;3578;51.568;6.932;2023-03-03T13:22:38;52119.94;;;-144.14;78.60
7075;BME280;3578;51.568;6.932;2023-03-03T13:25:44;52075.88;;;-144.14;79.77
7075;BME280;3578;51.568;6.932;2023-03-03T13:28:22;52105.94;;;-144.14;80.39
7075;BME280;3578;51.568;6.932;2023-03-03T13:31:00;52099.91;;;-144.14;79.73
7075;BME280;3578;51.568;6.932;2023-03-03T13:33:30;52123.97;;;-144.14;79.89
7075;BME280;3578;51.568;6.932;2023-03-03T13:36:04;52123.97;;;-144.14;79.04